Time;durP1;ratioP1;P1;durP2;ratioP2;P2;SDS_P1;SDS_P2;PMS_P1;PMS_P2;Temp;Humidity;BMP_temperature;BMP_pressure;BME280_temperature;BME280_humidity;BME280_pressure;Samples;Min_cycle;Max_cycle;Signal;HPM_P1;HPM_P2
2022/08/12 00:44:51;;;;;;;8.38;7.68;;;;;;;;;;5060880;28;20032;-78
2022/08/12 00:47:18;;;;;;;8.65;7.75;;;;;;;;;;5052831;28;20023;-74
2022/08/12 00:49:45;;;;;;;8.18;7.38;;;;;;;;;;5056292;28;20020;-75
2022/08/12 00:52:12;;;;;;;9.38;8.60;;;;;;;;;;5063570;28;20090;-74
2022/08/12 00:54:38;;;;;;;9.02;7.72;;;;;;;;;;5059765;28;20089;-74
2022/08/12 00:57:17;;;;;;;9.25;8.45;;;;;;;;;;5069248;28;20059;-74
2022/08/12 00:59:51;;;;;;;8.93;8.13;;;;;;;;;;5069484;28;20020;-74
2022/08/12 01:02:22;;;;;;;9.35;8.55;;;;;;;;;;5053251;28;20476;-74
2022/08/12 01:13:09;;;;;;;9.18;8.27;;;;;;;;;;5069241;28;20060;-75
2022/08/12 01:15:35;;;;;;;8.45;7.78;;;;;;;;;;5069022;28;20032;-74
2022/08/12 01:18:04;;;;;;;8.80;7.90;;;;;;;;;;5060016;28;20021;-74
2022/08/12 01:20:39;;;;;;;8.70;7.90;;;;;;;;;;5061933;28;20036;-74
2022/08/12 01:23:24;;;;;;;8.45;7.65;;;;;;;;;;5069165;28;20027;-75
2022/08/12 01:25:52;;;;;;;8.07;7.38;;;;;;;;;;5069154;28;20029;-74
2022/08/12 01:28:20;;;;;;;7.80;7.10;;;;;;;;;;5070908;28;20021;-74
2022/08/12 01:30:48;;;;;;;8.10;7.28;;;;;;;;;;5072991;28;20032;-75
2022/08/12 01:33:16;;;;;;;9.07;7.22;;;;;;;;;;5073090;28;20025;-75
2022/08/12 01:35:47;;;;;;;7.93;7.22;;;;;;;;;;5071604;28;20036;-74
2022/08/12 01:38:15;;;;;;;8.93;7.35;;;;;;;;;;5073015;28;20019;-75
2022/08/12 01:40:43;;;;;;;10.25;7.20;;;;;;;;;;5072968;28;20035;-75
2022/08/12 01:43:10;;;;;;;9.73;7.40;;;;;;;;;;5072891;28;20040;-74
2022/08/12 01:45:47;;;;;;;8.80;7.10;;;;;;;;;;5071341;28;20020;-75
2022/08/12 01:48:33;;;;;;;8.80;7.85;;;;;;;;;;5072831;28;20028;-75
2022/08/12 01:51:04;;;;;;;8.73;7.80;;;;;;;;;;5072712;28;20632;-74
2022/08/12 01:53:37;;;;;;;54.53;10.52;;;;;;;;;;5058248;28;20614;-74
2022/08/12 01:56:03;;;;;;;38.00;9.85;;;;;;;;;;5072799;28;20052;-74
2022/08/12 01:59:45;;;;;;;20.55;6.88;;;;;;;;;;5071173;28;20016;-74
2022/08/12 02:01:20;;;;;;;32.83;8.90;;;;;;;;;;5072399;28;20526;-73
2022/08/12 02:12:46;;;;;;;27.35;9.25;;;;;;;;;;5062868;28;20036;-73
2022/08/12 02:15:37;;;;;;;26.73;9.32;;;;;;;;;;5072194;28;20109;-73
2022/08/12 02:18:06;;;;;;;26.45;8.75;;;;;;;;;;5072257;28;20024;-73
2022/08/12 02:20:37;;;;;;;21.65;7.00;;;;;;;;;;5070868;28;20017;-74
2022/08/12 02:23:06;;;;;;;29.13;9.55;;;;;;;;;;5072286;28;20027;-73
2022/08/12 02:25:33;;;;;;;16.08;7.50;;;;;;;;;;5072205;28;20092;-74
2022/08/12 02:28:00;;;;;;;21.15;7.38;;;;;;;;;;5072322;28;20029;-74
2022/08/12 02:30:31;;;;;;;16.13;7.28;;;;;;;;;;5070035;28;20028;-74
2022/08/12 02:32:59;;;;;;;17.80;7.53;;;;;;;;;;5068987;28;20032;-73
2022/08/12 02:35:27;;;;;;;11.02;5.60;;;;;;;;;;5069120;28;20041;-73
2022/08/12 02:37:55;;;;;;;12.10;5.40;;;;;;;;;;5071989;28;20512;-73
2022/08/12 02:40:22;;;;;;;13.73;5.45;;;;;;;;;;5069787;28;20081;-73
2022/08/12 02:42:53;;;;;;;11.15;5.07;;;;;;;;;;5071753;28;20031;-73
2022/08/12 02:45:20;;;;;;;;;;;;;;;;;;5072276;28;20432;-74
2022/08/12 02:47:48;;;;;;;7.30;4.70;;;;;;;;;;5071675;28;19908;-73
2022/08/12 02:50:16;;;;;;;5.50;3.83;;;;;;;;;;5070341;28;20099;-74
2022/08/12 02:52:43;;;;;;;8.27;3.13;;;;;;;;;;5059014;28;20033;-73
2022/08/12 02:55:13;;;;;;;4.22;3.03;;;;;;;;;;5063482;28;20049;-73
2022/08/12 02:57:59;;;;;;;6.20;3.15;;;;;;;;;;5056153;28;20021;-73
2022/08/12 03:00:27;;;;;;;4.78;3.20;;;;;;;;;;5064186;28;20033;-73
2022/08/12 03:02:54;;;;;;;6.80;2.95;;;;;;;;;;5066079;28;20484;-73
2022/08/12 03:05:23;;;;;;;10.50;3.30;;;;;;;;;;5065682;28;20109;-73
2022/08/12 03:07:53;;;;;;;5.75;2.95;;;;;;;;;;5065924;28;20032;-73
2022/08/12 03:10:21;;;;;;;3.80;3.45;;;;;;;;;;5065455;28;20036;-73
2022/08/12 03:12:48;;;;;;;4.68;3.42;;;;;;;;;;5066269;28;20021;-74
2022/08/12 03:15:16;;;;;;;3.67;3.20;;;;;;;;;;5064136;28;20028;-73
2022/08/12 03:18:01;;;;;;;3.78;2.80;;;;;;;;;;5062572;28;20029;-73
2022/08/12 03:20:28;;;;;;;5.65;2.78;;;;;;;;;;5063435;28;20534;-75
2022/08/12 03:22:54;;;;;;;6.30;2.92;;;;;;;;;;5063533;28;20497;-74
2022/08/12 03:25:26;;;;;;;2.88;2.53;;;;;;;;;;5061808;28;20519;-74
2022/08/12 03:27:54;;;;;;;;;;;;;;;;;;5063421;28;20079;-73
2022/08/12 03:30:25;;;;;;;3.92;2.55;;;;;;;;;;5062945;28;20852;-73
2022/08/12 03:32:51;;;;;;;4.47;3.30;;;;;;;;;;5062681;28;20055;-73
2022/08/12 03:35:23;;;;;;;5.60;3.47;;;;;;;;;;5061619;28;20883;-76
2022/08/12 03:37:50;;;;;;;5.05;3.53;;;;;;;;;;5063023;28;20021;-74
2022/08/12 04:02:18;;;;;;;4.78;3.67;;;;;;;;;;5062410;28;20498;-73
2022/08/12 04:04:46;;;;;;;4.88;3.40;;;;;;;;;;5062882;28;20045;-73
2022/08/12 04:07:12;;;;;;;4.10;2.92;;;;;;;;;;5060785;28;20107;-73
2022/08/12 04:09:39;;;;;;;6.78;3.80;;;;;;;;;;5062387;28;20021;-74
2022/08/12 04:14:51;;;;;;;5.50;3.83;;;;;;;;;;5062119;28;20117;-73
2022/08/12 04:17:18;;;;;;;9.68;4.18;;;;;;;;;;5061972;28;20040;-74
2022/08/12 04:19:47;;;;;;;5.93;3.60;;;;;;;;;;5061026;28;20024;-73
2022/08/12 04:22:13;;;;;;;8.48;3.72;;;;;;;;;;5062112;28;20019;-73
2022/08/12 04:24:40;;;;;;;4.35;3.22;;;;;;;;;;5055097;28;20020;-73
2022/08/12 04:27:07;;;;;;;5.50;3.10;;;;;;;;;;5042730;28;20017;-76
2022/08/12 04:29:34;;;;;;;3.63;3.10;;;;;;;;;;5040279;28;20126;-73
2022/08/12 04:32:13;;;;;;;4.93;2.95;;;;;;;;;;5045490;28;20535;-72
2022/08/12 04:34:40;;;;;;;5.57;3.22;;;;;;;;;;5055583;28;20020;-73
2022/08/12 04:37:06;;;;;;;5.13;3.10;;;;;;;;;;5048064;28;20473;-73
2022/08/12 04:39:33;;;;;;;7.00;3.42;;;;;;;;;;5059174;28;20028;-74
2022/08/12 04:41:59;;;;;;;9.07;3.35;;;;;;;;;;5061533;28;20029;-73
2022/08/12 04:44:26;;;;;;;4.78;3.67;;;;;;;;;;5059066;28;20028;-73
2022/08/12 04:46:53;;;;;;;6.20;3.45;;;;;;;;;;5049162;28;20355;-72
2022/08/12 04:49:20;;;;;;;4.55;4.05;;;;;;;;;;5061861;28;21012;-77
2022/08/12 04:51:47;;;;;;;5.03;3.35;;;;;;;;;;5061833;28;20096;-73
2022/08/12 04:54:14;;;;;;;5.72;3.50;;;;;;;;;;5061570;28;20036;-73
2022/08/12 04:56:40;;;;;;;4.80;3.22;;;;;;;;;;5061620;28;20036;-74
2022/08/12 04:59:06;;;;;;;5.57;3.50;;;;;;;;;;5061774;28;20017;-73
2022/08/12 05:01:35;;;;;;;5.97;3.80;;;;;;;;;;5057830;28;20064;-73
2022/08/12 05:04:01;;;;;;;6.03;3.50;;;;;;;;;;5051452;28;20048;-72
2022/08/12 05:06:28;;;;;;;7.35;3.83;;;;;;;;;;5061620;28;20511;-72
2022/08/12 05:08:55;;;;;;;5.40;3.30;;;;;;;;;;5061661;28;20533;-73
2022/08/12 05:11:23;;;;;;;7.72;3.80;;;;;;;;;;5061602;28;20029;-73
2022/08/12 05:13:50;;;;;;;4.28;3.20;;;;;;;;;;5061542;28;20112;-73
2022/08/12 05:16:16;;;;;;;5.40;3.45;;;;;;;;;;5060602;28;20033;-73
2022/08/12 05:18:42;;;;;;;3.63;3.17;;;;;;;;;;5061376;28;20016;-73
2022/08/12 05:21:09;;;;;;;5.15;3.58;;;;;;;;;;5061630;28;20099;-73
2022/08/12 05:23:39;;;;;;;4.93;3.72;;;;;;;;;;5061471;28;20032;-73
2022/08/12 05:26:05;;;;;;;4.50;3.55;;;;;;;;;;5061822;28;20143;-74
2022/08/12 05:28:32;;;;;;;4.55;3.67;;;;;;;;;;5061481;28;20052;-73
2022/08/12 05:31:00;;;;;;;8.60;3.75;;;;;;;;;;5059700;28;20097;-74
2022/08/12 05:33:39;;;;;;;4.55;3.83;;;;;;;;;;5048268;28;20025;-73
2022/08/12 05:36:11;;;;;;;5.35;3.38;;;;;;;;;;5041520;28;20033;-74
2022/08/12 05:38:55;;;;;;;;;;;;;;;;;;5055514;28;20028;-72
2022/08/12 05:41:25;;;;;;;4.97;3.40;;;;;;;;;;5047889;28;19943;-72
2022/08/12 05:43:53;;;;;;;5.25;3.67;;;;;;;;;;5061041;28;20112;-72
2022/08/12 05:46:20;;;;;;;4.18;3.40;;;;;;;;;;5061659;28;20115;-72
2022/08/12 05:48:48;;;;;;;3.42;3.13;;;;;;;;;;5060061;28;20601;-72
2022/08/12 05:51:15;;;;;;;6.85;3.90;;;;;;;;;;5052729;28;20039;-71
2022/08/12 05:53:41;;;;;;;6.35;4.20;;;;;;;;;;5052011;28;20103;-72
2022/08/12 05:56:18;;;;;;;4.50;4.10;;;;;;;;;;5057366;28;20509;-74
2022/08/12 05:58:44;;;;;;;4.03;3.63;;;;;;;;;;5052918;28;20028;-72
2022/08/12 06:01:11;;;;;;;4.00;3.53;;;;;;;;;;5058552;28;20481;-71
2022/08/12 06:03:37;;;;;;;4.75;3.80;;;;;;;;;;5044807;28;20092;-72
2022/08/12 06:06:05;;;;;;;4.00;3.60;;;;;;;;;;5045072;28;20025;-72
2022/08/12 06:08:35;;;;;;;5.22;3.88;;;;;;;;;;5048886;28;20814;-72
2022/08/12 06:11:03;;;;;;;13.27;4.05;;;;;;;;;;5060888;28;20060;-71
2022/08/12 06:13:30;;;;;;;4.15;3.63;;;;;;;;;;5061159;28;20074;-72
2022/08/12 06:15:56;;;;;;;6.40;3.88;;;;;;;;;;5064585;28;20040;-72
2022/08/12 06:18:23;;;;;;;4.80;4.07;;;;;;;;;;5063142;28;20016;-73
2022/08/12 06:20:49;;;;;;;4.60;3.90;;;;;;;;;;5065242;28;20592;-72
2022/08/12 06:23:15;;;;;;;3.85;3.15;;;;;;;;;;5064266;28;20111;-72
2022/08/12 06:25:42;;;;;;;4.30;3.90;;;;;;;;;;5064478;28;20104;-75
2022/08/12 06:28:16;;;;;;;6.95;4.50;;;;;;;;;;5063135;28;20070;-77
2022/08/12 06:30:43;;;;;;;4.68;3.80;;;;;;;;;;5063133;28;20133;-73
2022/08/12 06:33:09;;;;;;;4.50;4.10;;;;;;;;;;5060316;28;20543;-77
2022/08/12 06:35:37;;;;;;;9.70;3.75;;;;;;;;;;5048299;28;20051;-72
2022/08/12 06:38:03;;;;;;;4.65;4.15;;;;;;;;;;5053504;28;20025;-73
2022/08/12 06:43:14;;;;;;;4.43;4.03;;;;;;;;;;5062596;28;20495;-73
2022/08/12 06:45:48;;;;;;;4.60;4.20;;;;;;;;;;5063805;28;20017;-72
2022/08/12 06:48:15;;;;;;;5.03;4.53;;;;;;;;;;5064454;28;20032;-73
2022/08/12 06:50:43;;;;;;;5.18;4.68;;;;;;;;;;5063706;28;20016;-72
2022/08/12 06:53:09;;;;;;;4.53;4.13;;;;;;;;;;5056088;28;20016;-72
2022/08/12 06:55:38;;;;;;;4.90;4.50;;;;;;;;;;5049472;28;20429;-73
2022/08/12 06:58:04;;;;;;;9.27;5.10;;;;;;;;;;5052026;28;20492;-73
2022/08/12 07:00:33;;;;;;;5.22;4.72;;;;;;;;;;5052940;28;20027;-73
2022/08/12 07:03:00;;;;;;;5.43;4.93;;;;;;;;;;5052123;28;20016;-73
2022/08/12 07:05:27;;;;;;;8.63;5.03;;;;;;;;;;5051899;28;20072;-74
2022/08/12 07:07:59;;;;;;;5.43;4.90;;;;;;;;;;5052573;28;20033;-73
2022/08/12 07:10:25;;;;;;;5.70;3.83;;;;;;;;;;5053578;28;20025;-73
2022/08/12 07:12:53;;;;;;;4.50;3.92;;;;;;;;;;5052326;28;20068;-75
2022/08/12 07:15:23;;;;;;;4.40;3.53;;;;;;;;;;5052472;28;20081;-74
2022/08/12 07:17:50;;;;;;;5.40;3.55;;;;;;;;;;5053227;28;20021;-73
2022/08/12 07:20:16;;;;;;;3.55;3.25;;;;;;;;;;5050037;28;20021;-73
2022/08/12 07:22:43;;;;;;;4.00;3.70;;;;;;;;;;5052181;28;20109;-72
2022/08/12 07:27:54;;;;;;;3.42;2.97;;;;;;;;;;5062103;28;20043;-75
2022/08/12 07:30:21;;;;;;;4.28;3.80;;;;;;;;;;5052180;28;20021;-73
2022/08/12 07:32:50;;;;;;;4.60;3.33;;;;;;;;;;5056704;28;20111;-74
2022/08/12 07:35:17;;;;;;;3.83;3.42;;;;;;;;;;5054038;28;20024;-73
2022/08/12 07:37:43;;;;;;;3.38;3.08;;;;;;;;;;5052650;28;20029;-73
2022/08/12 07:40:11;;;;;;;3.55;3.17;;;;;;;;;;5050419;28;20017;-73
2022/08/12 07:42:38;;;;;;;4.88;3.70;;;;;;;;;;5054058;28;20078;-73
2022/08/12 07:45:06;;;;;;;4.10;3.33;;;;;;;;;;5063166;28;20377;-73
2022/08/12 07:47:33;;;;;;;5.18;3.63;;;;;;;;;;5062993;28;20105;-73
2022/08/12 07:50:03;;;;;;;3.80;3.50;;;;;;;;;;5063015;28;20024;-73
2022/08/12 07:52:30;;;;;;;5.07;4.00;;;;;;;;;;5061244;28;20028;-73
2022/08/12 07:54:56;;;;;;;4.53;3.40;;;;;;;;;;5062903;28;20035;-73
2022/08/12 07:57:22;;;;;;;4.10;3.60;;;;;;;;;;5062616;28;20143;-73
2022/08/12 07:59:48;;;;;;;5.55;3.78;;;;;;;;;;5062217;28;20023;-73
2022/08/12 08:02:14;;;;;;;4.78;3.80;;;;;;;;;;5061201;28;20031;-74
2022/08/12 08:04:56;;;;;;;4.95;3.85;;;;;;;;;;5052915;28;20049;-75
2022/08/12 08:07:22;;;;;;;;;;;;;;;;;;5047497;28;20021;-72
2022/08/12 08:09:48;;;;;;;3.25;2.97;;;;;;;;;;5041077;28;19966;-74
2022/08/12 08:14:59;;;;;;;3.40;3.03;;;;;;;;;;5040348;28;20035;-73
2022/08/12 08:17:26;;;;;;;3.70;3.30;;;;;;;;;;5043736;28;20070;-72
2022/08/12 08:19:54;;;;;;;4.25;2.90;;;;;;;;;;5047140;28;20035;-74
2022/08/12 08:22:21;;;;;;;4.63;3.17;;;;;;;;;;5048180;28;20032;-72
2022/08/12 08:24:56;;;;;;;3.45;3.15;;;;;;;;;;5050219;28;20048;-74
2022/08/12 08:27:23;;;;;;;3.88;3.35;;;;;;;;;;5047381;28;20029;-72
2022/08/12 08:29:49;;;;;;;4.82;3.25;;;;;;;;;;5050303;28;20531;-71
2022/08/12 08:32:15;;;;;;;3.80;2.92;;;;;;;;;;5047721;28;20116;-73
2022/08/12 08:34:44;;;;;;;10.25;5.93;;;;;;;;;;5051714;28;20036;-72
2022/08/12 08:37:14;;;;;;;7.47;5.15;;;;;;;;;;5048907;28;20119;-72
2022/08/12 08:39:40;;;;;;;6.28;3.72;;;;;;;;;;5047016;28;20028;-72
2022/08/12 08:44:54;;;;;;;5.57;3.42;;;;;;;;;;5051243;28;20108;-72
2022/08/12 08:47:21;;;;;;;6.20;3.85;;;;;;;;;;5050087;28;20021;-72
2022/08/12 08:49:48;;;;;;;6.32;2.83;;;;;;;;;;5048980;28;20032;-71
2022/08/12 08:52:14;;;;;;;3.80;2.90;;;;;;;;;;5051622;28;20036;-72
2022/08/12 08:54:40;;;;;;;3.15;2.83;;;;;;;;;;5045935;28;20023;-72
2022/08/12 08:57:07;;;;;;;4.05;3.25;;;;;;;;;;5046680;28;20544;-72
2022/08/12 08:59:34;;;;;;;7.20;3.80;;;;;;;;;;5046838;28;20025;-71
2022/08/12 09:02:01;;;;;;;3.70;3.05;;;;;;;;;;5049003;28;20100;-73
2022/08/12 09:04:27;;;;;;;4.15;3.20;;;;;;;;;;5046224;28;20044;-71
2022/08/12 09:06:57;;;;;;;6.28;3.53;;;;;;;;;;5051526;28;20461;-72
2022/08/12 09:09:24;;;;;;;3.60;3.30;;;;;;;;;;5046539;28;20050;-73
2022/08/12 09:14:35;;;;;;;5.50;3.60;;;;;;;;;;5050229;28;20097;-72
2022/08/12 09:17:02;;;;;;;4.35;3.28;;;;;;;;;;5048787;28;20033;-72
2022/08/12 09:19:28;;;;;;;4.38;3.10;;;;;;;;;;5044040;28;20029;-72
2022/08/12 09:21:56;;;;;;;3.72;3.38;;;;;;;;;;5040992;28;20028;-72
2022/08/12 09:24:22;;;;;;;4.30;3.20;;;;;;;;;;5039323;28;20618;-73
2022/08/12 09:26:48;;;;;;;6.65;4.03;;;;;;;;;;5039790;28;20028;-72
2022/08/12 09:29:19;;;;;;;5.68;3.70;;;;;;;;;;5040702;28;20029;-72
2022/08/12 09:31:46;;;;;;;5.43;3.27;;;;;;;;;;5041919;28;20408;-71
2022/08/12 09:34:12;;;;;;;6.35;3.67;;;;;;;;;;5046242;28;20024;-72
2022/08/12 09:36:39;;;;;;;9.57;3.67;;;;;;;;;;5044968;28;20431;-71
2022/08/12 09:39:06;;;;;;;10.07;4.00;;;;;;;;;;5057685;28;20129;-72
2022/08/12 09:41:41;;;;;;;6.55;4.00;;;;;;;;;;5053216;28;20021;-71
2022/08/12 09:46:52;;;;;;;6.85;4.22;;;;;;;;;;5042490;28;20047;-71
2022/08/12 09:49:18;;;;;;;4.78;3.83;;;;;;;;;;5053169;28;20024;-72
2022/08/12 09:51:46;;;;;;;4.40;3.72;;;;;;;;;;5063239;28;20021;-74
2022/08/12 09:54:13;;;;;;;6.32;3.80;;;;;;;;;;5053917;28;20024;-75
2022/08/12 09:56:40;;;;;;;6.90;3.90;;;;;;;;;;5064297;28;20032;-73
2022/08/12 09:59:08;;;;;;;4.03;3.63;;;;;;;;;;5063299;28;20032;-74
2022/08/12 10:01:38;;;;;;;4.70;4.25;;;;;;;;;;5064556;28;20020;-73
2022/08/12 10:04:09;;;;;;;6.35;4.13;;;;;;;;;;5058415;28;20049;-73
2022/08/12 10:06:35;;;;;;;5.07;4.15;;;;;;;;;;5050390;28;20032;-73
2022/08/12 10:09:02;;;;;;;7.57;4.30;;;;;;;;;;5048907;28;20487;-73
2022/08/12 10:14:12;;;;;;;4.07;3.67;;;;;;;;;;5049276;28;20044;-72
2022/08/12 10:16:43;;;;;;;4.22;3.70;;;;;;;;;;5056549;28;20108;-72
2022/08/12 10:19:09;;;;;;;4.05;3.65;;;;;;;;;;5058160;28;20048;-71
2022/08/12 10:21:37;;;;;;;6.03;4.20;;;;;;;;;;5061115;28;20021;-70
2022/08/12 10:24:05;;;;;;;5.25;4.18;;;;;;;;;;5055558;28;20089;-73
2022/08/12 10:32:14;;;;;;;7.55;4.35;;;;;;;;;;5045443;28;20070;-71
2022/08/12 10:34:41;;;;;;;4.72;3.95;;;;;;;;;;5045379;28;20097;-71
2022/08/12 10:37:08;;;;;;;6.20;3.40;;;;;;;;;;5044686;28;20033;-76
2022/08/12 10:39:38;;;;;;;4.05;3.60;;;;;;;;;;5046421;28;20506;-71
2022/08/12 10:45:04;;;;;;;4.32;3.92;;;;;;;;;;5043024;28;20086;-72
2022/08/12 10:47:31;;;;;;;6.32;4.22;;;;;;;;;;5044812;28;20020;-71
2022/08/12 10:49:58;;;;;;;5.20;4.05;;;;;;;;;;5050006;28;20067;-71
2022/08/12 10:52:25;;;;;;;4.75;4.25;;;;;;;;;;5044280;28;20048;-71
2022/08/12 10:54:51;;;;;;;6.20;3.80;;;;;;;;;;5049427;28;20021;-71
2022/08/12 10:57:19;;;;;;;7.53;4.32;;;;;;;;;;5048999;28;20045;-71
2022/08/12 10:59:45;;;;;;;4.43;3.85;;;;;;;;;;5046505;28;20113;-71
2022/08/12 11:02:12;;;;;;;6.05;4.65;;;;;;;;;;5042962;28;20051;-71
2022/08/12 11:04:39;;;;;;;5.78;3.92;;;;;;;;;;5044356;28;20041;-70
2022/08/12 11:07:06;;;;;;;5.80;4.10;;;;;;;;;;5045156;28;20561;-70
2022/08/12 11:09:33;;;;;;;6.15;4.43;;;;;;;;;;5047997;28;20083;-71
2022/08/12 11:12:05;;;;;;;4.93;4.43;;;;;;;;;;5048198;28;20655;-72
2022/08/12 11:14:32;;;;;;;5.45;4.13;;;;;;;;;;5050174;28;20016;-71
2022/08/12 11:17:11;;;;;;;5.72;3.95;;;;;;;;;;5042787;28;20025;-72
2022/08/12 11:19:38;;;;;;;5.45;4.72;;;;;;;;;;5047557;28;20473;-71
2022/08/12 11:22:05;;;;;;;6.72;4.50;;;;;;;;;;5052022;28;20046;-71
2022/08/12 11:24:32;;;;;;;9.27;4.63;;;;;;;;;;5045225;28;20075;-74
2022/08/12 11:26:59;;;;;;;7.05;4.75;;;;;;;;;;5047304;28;20017;-72
2022/08/12 11:29:25;;;;;;;10.10;4.90;;;;;;;;;;5045786;28;20021;-71
2022/08/12 11:31:52;;;;;;;6.47;4.60;;;;;;;;;;5048917;28;20534;-71
2022/08/12 11:34:19;;;;;;;7.25;4.35;;;;;;;;;;5047364;28;20024;-72
2022/08/12 11:36:52;;;;;;;6.68;4.70;;;;;;;;;;5051742;28;20394;-71
2022/08/12 11:39:18;;;;;;;6.45;4.35;;;;;;;;;;5062984;28;20016;-71
2022/08/12 11:41:44;;;;;;;6.85;4.60;;;;;;;;;;5052898;28;20428;-71
2022/08/12 11:44:11;;;;;;;7.55;4.47;;;;;;;;;;5056006;28;20051;-72
2022/08/12 11:46:37;;;;;;;5.55;4.45;;;;;;;;;;5051612;28;20021;-71
2022/08/12 11:49:06;;;;;;;6.65;4.45;;;;;;;;;;5058136;28;20020;-72
2022/08/12 11:51:33;;;;;;;6.78;4.50;;;;;;;;;;5059861;28;20036;-72
2022/08/12 11:53:59;;;;;;;6.00;4.72;;;;;;;;;;5061117;28;20550;-72
2022/08/12 11:56:26;;;;;;;9.30;4.80;;;;;;;;;;5057550;28;20739;-72
2022/08/12 11:58:52;;;;;;;12.32;4.95;;;;;;;;;;5046717;28;20017;-72
2022/08/12 12:01:18;;;;;;;8.10;4.32;;;;;;;;;;5059768;28;20033;-72
2022/08/12 12:03:44;;;;;;;11.13;4.75;;;;;;;;;;5056815;28;20106;-72
2022/08/12 12:06:11;;;;;;;8.15;4.43;;;;;;;;;;5045423;28;20024;-72
2022/08/12 12:08:37;;;;;;;7.40;4.00;;;;;;;;;;5041909;28;20028;-72
2022/08/12 12:11:03;;;;;;;8.38;4.20;;;;;;;;;;5047451;28;20039;-72
2022/08/12 12:13:29;;;;;;;14.10;4.90;;;;;;;;;;5049910;28;20031;-71
2022/08/12 12:15:55;;;;;;;12.57;5.10;;;;;;;;;;5047373;28;20041;-71
2022/08/12 12:18:22;;;;;;;8.93;4.28;;;;;;;;;;5047441;28;20031;-72
2022/08/12 12:20:48;;;;;;;11.13;4.78;;;;;;;;;;5049880;28;20032;-72
2022/08/12 12:23:15;;;;;;;11.82;4.70;;;;;;;;;;5046171;28;20056;-72
2022/08/12 12:25:41;;;;;;;9.90;4.70;;;;;;;;;;5051155;28;20619;-71
2022/08/12 12:28:07;;;;;;;7.93;4.55;;;;;;;;;;5042696;28;20020;-71
2022/08/12 12:30:34;;;;;;;8.95;4.90;;;;;;;;;;5062101;28;20080;-72
2022/08/12 12:33:00;;;;;;;9.02;4.60;;;;;;;;;;5061713;28;20150;-71
2022/08/12 12:35:26;;;;;;;6.85;4.13;;;;;;;;;;5058907;28;20657;-72
2022/08/12 12:37:53;;;;;;;7.82;4.35;;;;;;;;;;5048160;28;20480;-73
2022/08/12 12:40:19;;;;;;;7.18;4.00;;;;;;;;;;5054460;28;20033;-71
2022/08/12 12:42:45;;;;;;;5.95;3.88;;;;;;;;;;5054229;28;20024;-72
2022/08/12 12:45:12;;;;;;;7.38;4.00;;;;;;;;;;5039587;28;20503;-72
2022/08/12 12:47:51;;;;;;;20.90;4.07;;;;;;;;;;5041401;28;20585;-72
2022/08/12 12:50:17;;;;;;;13.98;3.95;;;;;;;;;;5040728;28;20025;-71
2022/08/12 12:52:43;;;;;;;10.05;3.53;;;;;;;;;;5040920;28;20079;-72
2022/08/12 12:55:10;;;;;;;7.00;2.97;;;;;;;;;;5044159;28;20032;-72
2022/08/12 12:57:39;;;;;;;6.80;3.05;;;;;;;;;;5040989;28;20044;-70
2022/08/12 13:00:16;;;;;;;7.45;3.28;;;;;;;;;;5041351;28;20577;-72
2022/08/12 13:02:54;;;;;;;7.40;3.55;;;;;;;;;;5039830;28;20405;-71
2022/08/12 13:05:24;;;;;;;6.75;3.42;;;;;;;;;;5040928;28;20072;-71
2022/08/12 13:07:52;;;;;;;9.02;3.20;;;;;;;;;;5040063;28;20025;-71
2022/08/12 13:10:19;;;;;;;5.50;2.75;;;;;;;;;;5040916;28;20017;-71
2022/08/12 13:12:46;;;;;;;8.02;3.30;;;;;;;;;;5041144;28;20013;-70
2022/08/12 13:15:16;;;;;;;8.35;3.58;;;;;;;;;;5039862;28;20033;-71
2022/08/12 13:18:07;;;;;;;7.47;3.10;;;;;;;;;;5040899;28;20045;-71
2022/08/12 13:20:34;;;;;;;6.95;3.00;;;;;;;;;;5043798;28;20028;-71
2022/08/12 13:23:01;;;;;;;7.85;3.55;;;;;;;;;;5040113;28;20041;-70
2022/08/12 13:25:27;;;;;;;7.60;3.30;;;;;;;;;;5045070;28;20071;-71
2022/08/12 13:27:54;;;;;;;9.05;2.92;;;;;;;;;;5044134;28;20576;-71
2022/08/12 13:30:24;;;;;;;9.15;3.35;;;;;;;;;;5043666;28;20083;-72
2022/08/12 13:32:57;;;;;;;6.78;2.88;;;;;;;;;;5043546;28;20196;-72
2022/08/12 13:35:24;;;;;;;5.20;3.03;;;;;;;;;;5041716;28;20150;-71
2022/08/12 13:37:52;;;;;;;4.95;3.00;;;;;;;;;;5051839;28;20515;-70
2022/08/12 13:40:32;;;;;;;3.45;3.15;;;;;;;;;;5065139;28;20027;-71
2022/08/12 13:43:00;;;;;;;6.20;3.00;;;;;;;;;;5051718;28;20383;-71
2022/08/12 13:45:31;;;;;;;9.00;2.75;;;;;;;;;;5063337;28;20060;-71
2022/08/12 13:47:58;;;;;;;5.45;3.40;;;;;;;;;;5051113;28;20111;-70
2022/08/12 13:50:35;;;;;;;5.32;3.42;;;;;;;;;;5064860;28;20055;-73
2022/08/12 13:53:07;;;;;;;6.13;3.58;;;;;;;;;;5064198;28;20048;-71
2022/08/12 13:55:33;;;;;;;4.57;3.17;;;;;;;;;;5064473;28;20036;-72
2022/08/12 13:58:00;;;;;;;4.15;3.50;;;;;;;;;;5062940;28;20108;-71
2022/08/12 14:00:26;;;;;;;6.85;3.25;;;;;;;;;;5064272;28;20063;-70
2022/08/12 14:02:53;;;;;;;5.15;3.67;;;;;;;;;;5059992;28;20021;-70
2022/08/12 14:05:19;;;;;;;12.15;3.70;;;;;;;;;;5052218;28;20115;-71
2022/08/12 14:08:01;;;;;;;6.70;3.20;;;;;;;;;;5060975;28;20021;-70
2022/08/12 14:10:35;;;;;;;5.57;3.25;;;;;;;;;;5064510;28;20036;-71
2022/08/12 14:13:25;;;;;;;7.25;3.50;;;;;;;;;;5064045;28;20021;-71
2022/08/12 14:15:53;;;;;;;5.47;3.17;;;;;;;;;;5064111;28;20047;-71
2022/08/12 14:18:20;;;;;;;7.68;3.28;;;;;;;;;;5062980;28;20024;-70
2022/08/12 14:20:48;;;;;;;6.18;3.50;;;;;;;;;;5064274;28;20361;-71
2022/08/12 14:23:15;;;;;;;8.20;3.88;;;;;;;;;;5063725;28;20035;-71
2022/08/12 14:25:42;;;;;;;7.93;3.28;;;;;;;;;;5061327;28;20028;-70
2022/08/12 14:28:15;;;;;;;7.45;3.75;;;;;;;;;;5064328;28;20617;-71
2022/08/12 14:30:47;;;;;;;4.57;3.63;;;;;;;;;;5064306;28;20048;-71
2022/08/12 14:33:14;;;;;;;5.50;3.42;;;;;;;;;;5063829;28;20078;-71
2022/08/12 14:35:41;;;;;;;3.15;2.80;;;;;;;;;;5058542;28;20119;-70
2022/08/12 14:38:15;;;;;;;3.80;2.60;;;;;;;;;;5051717;28;20108;-71
2022/08/12 14:40:42;;;;;;;6.68;3.20;;;;;;;;;;5062272;28;20838;-70
2022/08/12 14:43:12;;;;;;;4.57;2.70;;;;;;;;;;5063542;28;20655;-71
2022/08/12 14:45:39;;;;;;;4.03;2.50;;;;;;;;;;5052338;28;20057;-70
2022/08/12 14:48:06;;;;;;;4.72;2.60;;;;;;;;;;5052194;28;20028;-70
2022/08/12 14:50:33;;;;;;;3.17;2.75;;;;;;;;;;5048986;28;20033;-70
2022/08/12 14:53:00;;;;;;;2.75;2.45;;;;;;;;;;5053258;28;20530;-70
2022/08/12 14:55:32;;;;;;;5.93;2.67;;;;;;;;;;5050211;28;20578;-71
2022/08/12 14:57:59;;;;;;;3.67;2.75;;;;;;;;;;5051901;28;20503;-70
2022/08/12 15:03:13;;;;;;;4.22;2.63;;;;;;;;;;5051632;28;20048;-71
2022/08/12 15:05:41;;;;;;;2.70;2.40;;;;;;;;;;5050838;28;20040;-70
2022/08/12 15:08:12;;;;;;;2.65;2.45;;;;;;;;;;5050371;28;20873;-73
2022/08/12 15:10:41;;;;;;;3.50;2.83;;;;;;;;;;5052824;28;20041;-71
2022/08/12 15:13:08;;;;;;;3.97;2.53;;;;;;;;;;5052407;28;20074;-71
2022/08/12 15:15:40;;;;;;;4.57;2.40;;;;;;;;;;5052896;28;20029;-73
2022/08/12 15:18:06;;;;;;;3.38;2.40;;;;;;;;;;5051273;28;20021;-71
2022/08/12 15:20:34;;;;;;;3.42;2.33;;;;;;;;;;5052768;28;20017;-71
2022/08/12 15:23:02;;;;;;;3.15;2.35;;;;;;;;;;5050654;28;20020;-71
2022/08/12 15:25:29;;;;;;;4.13;2.40;;;;;;;;;;5051347;28;20036;-71
2022/08/12 15:27:58;;;;;;;3.00;2.70;;;;;;;;;;5050695;28;20569;-71
2022/08/12 15:30:27;;;;;;;4.88;2.58;;;;;;;;;;5049430;28;20507;-71
2022/08/12 15:32:54;;;;;;;8.45;2.63;;;;;;;;;;5045025;28;20124;-73
2022/08/12 15:35:22;;;;;;;4.32;2.85;;;;;;;;;;5050043;28;20017;-71
2022/08/12 15:38:01;;;;;;;3.90;2.60;;;;;;;;;;5052262;28;20036;-71
2022/08/12 15:40:28;;;;;;;3.28;2.50;;;;;;;;;;5052621;28;20041;-71
2022/08/12 15:42:58;;;;;;;3.83;2.65;;;;;;;;;;5051238;28;20028;-71
2022/08/12 15:45:25;;;;;;;4.25;2.80;;;;;;;;;;5050739;28;20024;-72
2022/08/12 15:47:54;;;;;;;4.97;2.65;;;;;;;;;;5050405;28;20067;-72
2022/08/12 15:50:24;;;;;;;5.82;2.63;;;;;;;;;;5050676;28;20023;-71
2022/08/12 15:52:51;;;;;;;10.75;3.25;;;;;;;;;;5052440;28;20021;-71
2022/08/12 15:55:17;;;;;;;4.25;2.92;;;;;;;;;;5049354;28;20119;-72
2022/08/12 15:57:51;;;;;;;5.07;2.72;;;;;;;;;;5048053;28;20029;-72
2022/08/12 16:00:18;;;;;;;5.60;2.88;;;;;;;;;;5049124;28;20027;-72
2022/08/12 16:02:45;;;;;;;4.40;3.13;;;;;;;;;;5050413;28;20606;-73
2022/08/12 16:05:15;;;;;;;5.20;3.00;;;;;;;;;;5048631;28;20099;-76
2022/08/12 16:07:42;;;;;;;5.45;3.22;;;;;;;;;;5050436;28;20460;-71
2022/08/12 16:10:08;;;;;;;4.32;3.33;;;;;;;;;;5047394;28;20104;-75
2022/08/12 16:12:41;;;;;;;6.13;3.00;;;;;;;;;;5050675;28;20029;-72
2022/08/12 16:15:09;;;;;;;5.43;3.13;;;;;;;;;;5048605;28;20090;-73
2022/08/12 16:17:36;;;;;;;5.50;2.70;;;;;;;;;;5051178;28;20172;-72
2022/08/12 16:20:02;;;;;;;5.68;2.97;;;;;;;;;;5049841;28;20028;-74
2022/08/12 16:22:28;;;;;;;7.00;2.90;;;;;;;;;;5050033;28;20029;-73
2022/08/12 16:24:54;;;;;;;5.20;3.20;;;;;;;;;;5046379;28;20071;-73
2022/08/12 16:27:22;;;;;;;4.88;3.20;;;;;;;;;;5046340;28;20116;-73
2022/08/12 16:29:58;;;;;;;6.90;3.13;;;;;;;;;;5047735;28;20017;-73
2022/08/12 16:32:26;;;;;;;5.72;3.35;;;;;;;;;;5052623;28;20601;-71
2022/08/12 16:34:53;;;;;;;3.72;2.97;;;;;;;;;;5039661;28;20029;-71
2022/08/12 16:37:20;;;;;;;3.50;3.03;;;;;;;;;;5043015;28;20029;-74
2022/08/12 16:39:48;;;;;;;4.28;3.17;;;;;;;;;;5060872;28;20021;-71
2022/08/12 16:42:14;;;;;;;4.65;3.60;;;;;;;;;;5057532;28;20033;-71
2022/08/12 16:44:40;;;;;;;4.07;3.47;;;;;;;;;;5061379;28;20009;-71
2022/08/12 16:47:06;;;;;;;5.32;3.25;;;;;;;;;;5059443;28;20028;-71